Time;durP1;ratioP1;P1;durP2;ratioP2;P2;SDS_P1;SDS_P2;PMS_P1;PMS_P2;Temp;Humidity;BMP_temperature;BMP_pressure;BME280_temperature;BME280_humidity;BME280_pressure;Samples;Min_cycle;Max_cycle;Signal;HPM_P1;HPM_P2
2022/06/16 00:01:09;;;;;;;5.45;2.60;;;13.70;83.10;;;;;;5030296;28;20037;-43
2022/06/16 00:03:38;;;;;;;7.53;2.45;;;13.60;82.90;;;;;;5031291;28;20048;-43
2022/06/16 00:06:07;;;;;;;5.43;2.30;;;13.70;83.10;;;;;;5039684;28;20041;-43
2022/06/16 00:08:34;;;;;;;6.43;2.42;;;13.70;83.00;;;;;;5016338;28;20052;-46
2022/06/16 00:11:19;;;;;;;4.53;2.00;;;13.70;83.00;;;;;;5025409;28;20025;-43
2022/06/16 00:13:48;;;;;;;5.63;3.10;;;13.70;83.00;;;;;;5024023;28;20022;-44
2022/06/16 00:16:16;;;;;;;5.63;2.95;;;13.70;83.00;;;;;;5010207;28;20036;-44
2022/06/16 00:18:47;;;;;;;3.88;2.35;;;13.70;83.00;;;;;;5025360;28;20030;-43
2022/06/16 00:21:13;;;;;;;4.93;2.92;;;13.70;83.10;;;;;;5012676;28;20048;-44
2022/06/16 00:23:43;;;;;;;5.25;3.17;;;13.60;83.20;;;;;;5030679;28;20022;-44
2022/06/16 00:26:12;;;;;;;5.28;2.08;;;13.50;83.30;;;;;;5029942;28;20061;-44
2022/06/16 00:28:40;;;;;;;4.07;2.40;;;13.50;83.40;;;;;;5046161;28;20374;-44
2022/06/16 00:31:07;;;;;;;3.63;2.13;;;13.50;83.40;;;;;;5029603;28;20466;-44
2022/06/16 00:33:34;;;;;;;6.82;2.42;;;13.50;83.50;;;;;;5030519;28;20096;-44
2022/06/16 00:36:01;;;;;;;6.40;2.80;;;13.50;83.70;;;;;;5035847;28;20056;-43
2022/06/16 00:38:27;;;;;;;4.70;2.40;;;13.50;83.70;;;;;;5022719;28;20041;-45
2022/06/16 00:40:57;;;;;;;5.07;2.50;;;13.50;83.60;;;;;;5045135;28;20025;-45
2022/06/16 00:43:25;;;;;;;3.75;2.83;;;13.40;83.80;;;;;;5046018;28;20405;-43
2022/06/16 00:46:12;;;;;;;7.65;3.33;;;13.50;84.00;;;;;;5035558;28;20103;-43
2022/06/16 00:49:00;;;;;;;5.18;2.30;;;13.50;84.00;;;;;;5049836;28;20109;-45
2022/06/16 00:51:39;;;;;;;5.47;2.40;;;13.50;84.10;;;;;;5048422;28;20037;-44
2022/06/16 00:54:29;;;;;;;6.28;1.65;;;13.50;84.20;;;;;;5050015;28;20034;-45
2022/06/16 00:57:08;;;;;;;6.18;2.15;;;13.50;84.40;;;;;;5016998;28;20037;-44
2022/06/16 00:59:39;;;;;;;6.10;1.88;;;13.50;84.10;;;;;;5045422;28;20116;-44
2022/06/16 01:02:08;;;;;;;3.80;1.42;;;13.50;83.80;;;;;;5041157;28;20049;-46
2022/06/16 01:04:51;;;;;;;3.13;1.60;;;13.60;83.80;;;;;;5049626;28;20676;-43
2022/06/16 01:07:35;;;;;;;4.88;1.98;;;13.60;83.80;;;;;;5036329;28;20041;-44
2022/06/16 01:10:02;;;;;;;5.07;1.75;;;13.60;83.80;;;;;;5033155;28;20029;-43
2022/06/16 01:16:11;;;;;;;7.38;2.63;;;13.60;83.80;;;;;;5041406;28;20036;-44
2022/06/16 01:18:54;;;;;;;4.32;2.58;;;13.60;83.80;;;;;;5049451;28;20083;-45
2022/06/16 01:21:43;;;;;;;5.75;2.92;;;13.60;84.10;;;;;;5046587;28;20031;-44
2022/06/16 01:24:30;;;;;;;5.50;2.30;;;13.60;84.00;;;;;;5019156;28;20037;-45
2022/06/16 01:27:25;;;;;;;4.88;2.08;;;13.60;83.90;;;;;;5049177;28;20036;-44
2022/06/16 01:30:06;;;;;;;6.43;2.40;;;13.60;83.90;;;;;;5033160;28;20064;-44
2022/06/16 01:32:47;;;;;;;5.68;2.72;;;13.60;83.90;;;;;;5039143;28;20033;-44
2022/06/16 01:35:21;;;;;;;5.47;2.20;;;13.60;84.00;;;;;;5009815;28;20057;-43
2022/06/16 01:38:06;;;;;;;5.00;2.85;;;13.60;84.00;;;;;;5036262;28;20133;-46
2022/06/16 01:40:31;;;;;;;7.18;3.20;;;13.50;84.30;;;;;;5011876;28;20029;-44
2022/06/16 01:43:24;;;;;;;5.90;3.00;;;13.40;84.40;;;;;;5028731;28;20044;-44
2022/06/16 01:46:06;;;;;;;8.90;2.92;;;13.40;84.30;;;;;;5029112;28;20108;-45
2022/06/16 01:48:35;;;;;;;5.97;3.05;;;13.40;84.40;;;;;;5008125;28;20442;-45
2022/06/16 01:51:30;;;;;;;6.88;3.38;;;13.30;84.50;;;;;;5025294;28;20026;-45
2022/06/16 01:54:20;;;;;;;7.53;3.35;;;13.30;84.60;;;;;;4992208;28;20021;-44
2022/06/16 01:57:12;;;;;;;4.82;2.33;;;13.20;84.70;;;;;;5014505;28;20030;-44
2022/06/16 02:00:04;;;;;;;6.45;2.55;;;13.20;84.90;;;;;;5011580;28;20454;-43
2022/06/16 02:02:35;;;;;;;4.90;2.60;;;13.10;85.00;;;;;;5021442;28;20033;-44
2022/06/16 02:05:16;;;;;;;4.43;2.47;;;13.10;84.90;;;;;;5037042;28;20124;-44
2022/06/16 02:07:56;;;;;;;8.38;2.80;;;13.10;85.10;;;;;;5008965;28;20118;-44
2022/06/16 02:10:32;;;;;;;3.90;2.60;;;13.10;85.10;;;;;;5022026;28;20087;-44
2022/06/16 02:13:00;;;;;;;5.88;3.13;;;13.10;85.20;;;;;;5048529;28;20025;-44
2022/06/16 02:16:00;;;;;;;8.27;2.83;;;13.00;85.20;;;;;;5043699;28;20079;-44
2022/06/16 02:18:33;;;;;;;4.65;2.78;;;13.00;85.20;;;;;;5038982;28;20489;-43
2022/06/16 02:21:12;;;;;;;6.40;2.80;;;13.00;85.30;;;;;;5029519;28;20037;-44
2022/06/16 02:23:41;;;;;;;5.73;2.83;;;13.00;85.30;;;;;;5048793;28;20029;-44
2022/06/16 02:26:08;;;;;;;4.80;3.17;;;13.00;85.30;;;;;;5046680;28;20592;-44
2022/06/16 02:28:44;;;;;;;4.85;3.53;;;13.00;85.30;;;;;;5048672;28;20167;-44
2022/06/16 02:31:31;;;;;;;7.18;4.55;;;13.00;85.20;;;;;;5027937;28;22133;-43
2022/06/16 02:34:27;;;;;;;9.00;3.55;;;13.00;85.20;;;;;;5028814;28;20025;-45
2022/06/16 02:37:26;;;;;;;7.65;4.28;;;13.00;85.20;;;;;;5018157;28;20028;-44
2022/06/16 02:40:19;;;;;;;5.85;4.60;;;13.00;85.30;;;;;;5048518;28;20369;-42
2022/06/16 02:43:11;;;;;;;7.43;4.00;;;13.00;85.30;;;;;;4987683;28;20041;-44
2022/06/16 02:45:54;;;;;;;9.82;3.70;;;13.00;85.40;;;;;;4988088;28;20038;-44
2022/06/16 02:48:44;;;;;;;7.97;3.13;;;13.00;85.50;;;;;;5036745;28;20095;-44
2022/06/16 02:51:42;;;;;;;6.78;3.22;;;13.00;85.30;;;;;;5027637;28;20029;-43
2022/06/16 02:54:25;;;;;;;8.25;4.13;;;13.00;85.30;;;;;;5028464;28;20026;-48
2022/06/16 02:57:31;;;;;;;7.18;3.22;;;13.00;85.30;;;;;;5028251;28;20437;-43
2022/06/16 03:00:07;;;;;;;7.88;3.75;;;13.00;85.40;;;;;;5032103;28;20073;-46
2022/06/16 03:02:37;;;;;;;5.65;3.03;;;13.00;85.50;;;;;;5027791;28;20022;-44
2022/06/16 03:05:07;;;;;;;4.85;2.92;;;12.90;85.40;;;;;;5017459;28;20454;-45
2022/06/16 03:07:35;;;;;;;6.82;3.38;;;12.90;85.30;;;;;;5051363;28;20072;-44
2022/06/16 03:10:04;;;;;;;4.53;2.53;;;12.90;85.40;;;;;;5030288;28;20037;-44
2022/06/16 03:12:30;;;;;;;6.22;3.13;;;13.00;85.40;;;;;;4994559;28;20034;-43
2022/06/16 03:14:56;;;;;;;7.00;3.38;;;12.90;85.30;;;;;;5021373;28;20072;-44
2022/06/16 03:17:23;;;;;;;6.65;2.78;;;12.90;85.40;;;;;;5013877;28;20084;-43
2022/06/16 03:19:50;;;;;;;6.15;2.90;;;12.90;85.40;;;;;;5038742;28;20033;-44
2022/06/16 03:22:18;;;;;;;4.78;2.92;;;12.90;85.60;;;;;;5021663;28;20040;-43
2022/06/16 03:24:45;;;;;;;5.53;2.72;;;12.90;85.40;;;;;;5031027;28;20021;-43
2022/06/16 03:27:12;;;;;;;6.60;3.10;;;12.90;85.40;;;;;;5031415;28;20033;-42
2022/06/16 03:29:39;;;;;;;5.35;3.00;;;12.90;85.50;;;;;;5034700;28;20032;-43
2022/06/16 03:32:07;;;;;;;5.13;2.85;;;12.90;85.60;;;;;;5041908;28;20036;-42
2022/06/16 03:34:32;;;;;;;5.18;2.78;;;12.80;85.60;;;;;;5022417;28;20033;-46
2022/06/16 03:36:59;;;;;;;5.78;3.63;;;12.80;85.60;;;;;;5033990;28;20021;-43
2022/06/16 03:39:26;;;;;;;4.95;3.15;;;12.80;85.70;;;;;;5047136;28;20105;-45
2022/06/16 03:41:55;;;;;;;6.45;3.45;;;12.80;85.70;;;;;;5014418;28;20413;-43
2022/06/16 03:44:24;;;;;;;5.35;3.38;;;12.80;85.60;;;;;;5031888;28;20506;-43
2022/06/16 03:46:54;;;;;;;8.50;3.70;;;12.80;85.70;;;;;;5033660;28;20028;-43
2022/06/16 03:49:21;;;;;;;7.32;3.42;;;12.90;85.60;;;;;;5049192;28;20035;-43
2022/06/16 03:51:49;;;;;;;10.15;3.55;;;12.90;85.50;;;;;;5045820;28;20378;-42
2022/06/16 03:54:15;;;;;;;6.57;4.32;;;12.90;85.50;;;;;;5030225;28;20030;-43
2022/06/16 03:56:44;;;;;;;7.60;4.85;;;12.90;85.50;;;;;;5049895;28;20074;-42
2022/06/16 03:59:11;;;;;;;7.22;4.03;;;12.90;85.80;;;;;;5051040;28;20536;-43
2022/06/16 04:01:38;;;;;;;11.38;3.75;;;12.80;86.00;;;;;;5036717;28;20037;-42
2022/06/16 04:04:06;;;;;;;7.50;4.68;;;12.90;86.00;;;;;;5051087;28;20052;-43
2022/06/16 04:06:35;;;;;;;8.18;4.28;;;12.90;86.10;;;;;;5041618;28;20104;-43
2022/06/16 04:09:01;;;;;;;5.68;4.10;;;12.90;86.10;;;;;;5030193;28;20045;-42
2022/06/16 04:11:28;;;;;;;7.43;3.90;;;12.90;86.20;;;;;;5029798;28;20048;-43
2022/06/16 04:14:16;;;;;;;7.25;4.45;;;12.90;86.20;;;;;;5040246;28;20134;-44
2022/06/16 04:16:46;;;;;;;7.80;4.70;;;12.90;86.30;;;;;;5013517;28;20035;-44
2022/06/16 04:19:19;;;;;;;6.25;3.85;;;12.90;86.30;;;;;;5031498;28;20021;-42
2022/06/16 04:21:47;;;;;;;6.88;4.47;;;12.90;86.30;;;;;;5028337;28;20026;-43
2022/06/16 04:24:13;;;;;;;8.43;4.15;;;12.90;86.40;;;;;;5012960;28;20052;-42
2022/06/16 04:26:40;;;;;;;7.70;4.38;;;12.90;86.60;;;;;;5013137;28;20029;-44
2022/06/16 04:29:11;;;;;;;6.47;3.30;;;12.90;86.70;;;;;;5043744;28;20108;-44
2022/06/16 04:31:41;;;;;;;7.45;3.47;;;13.00;86.70;;;;;;5032129;28;20025;-46
2022/06/16 04:34:09;;;;;;;6.85;3.35;;;13.00;86.70;;;;;;5025667;28;20033;-43
2022/06/16 04:36:39;;;;;;;6.68;3.75;;;13.10;86.60;;;;;;5050365;28;20064;-44
2022/06/16 04:39:06;;;;;;;6.70;3.40;;;13.20;86.40;;;;;;5034831;28;20049;-43
2022/06/16 04:41:33;;;;;;;6.95;3.40;;;13.20;86.30;;;;;;5028945;28;20032;-43
2022/06/16 04:43:58;;;;;;;8.30;3.95;;;13.20;86.30;;;;;;5029286;28;20025;-45
2022/06/16 04:46:29;;;;;;;6.15;2.97;;;13.20;86.30;;;;;;5028377;28;20858;-43
2022/06/16 04:48:57;;;;;;;8.05;3.20;;;13.30;86.20;;;;;;5027371;28;20454;-46
2022/06/16 04:51:24;;;;;;;9.95;3.17;;;13.40;86.10;;;;;;5012020;28;20517;-45
2022/06/16 04:53:50;;;;;;;8.45;2.85;;;13.50;86.00;;;;;;5029549;28;20018;-44
2022/06/16 04:56:17;;;;;;;4.93;2.72;;;13.60;85.80;;;;;;5026267;28;20044;-43
2022/06/16 04:58:44;;;;;;;5.78;2.92;;;13.70;85.50;;;;;;5029233;28;20800;-43
2022/06/16 05:01:11;;;;;;;4.97;2.30;;;13.80;85.30;;;;;;5034323;28;20343;-43
2022/06/16 05:03:37;;;;;;;4.07;2.17;;;13.90;85.20;;;;;;5013070;28;20338;-45
2022/06/16 05:06:04;;;;;;;4.53;2.38;;;14.00;84.90;;;;;;5011566;28;20025;-45
2022/06/16 05:08:31;;;;;;;4.95;2.22;;;14.10;84.60;;;;;;5011386;28;20546;-43
2022/06/16 05:10:58;;;;;;;5.43;2.17;;;14.20;84.50;;;;;;5011657;28;20022;-43
2022/06/16 05:13:25;;;;;;;5.80;2.55;;;14.30;84.40;;;;;;5028490;28;20493;-44
2022/06/16 05:15:58;;;;;;;5.15;2.25;;;14.40;83.70;;;;;;5009564;28;20030;-44
2022/06/16 05:18:25;;;;;;;8.43;2.42;;;14.40;83.50;;;;;;5025311;28;20026;-46
2022/06/16 05:21:01;;;;;;;7.18;1.80;;;14.40;83.60;;;;;;5012421;28;20385;-44
2022/06/16 05:23:27;;;;;;;4.90;1.60;;;14.40;83.30;;;;;;5044688;28;20430;-45
2022/06/16 05:25:54;;;;;;;5.40;2.33;;;14.40;82.60;;;;;;5047345;28;20078;-44
2022/06/16 05:28:20;;;;;;;5.75;1.80;;;14.40;82.30;;;;;;5047611;28;20057;-44
2022/06/16 05:30:47;;;;;;;7.43;1.60;;;14.50;82.40;;;;;;5030577;28;20018;-43
2022/06/16 05:33:14;;;;;;;6.53;2.10;;;14.50;82.20;;;;;;5028016;28;20025;-44
2022/06/16 05:35:39;;;;;;;6.28;1.80;;;14.60;82.30;;;;;;5028890;28;20029;-43
2022/06/16 05:38:07;;;;;;;3.78;1.52;;;14.80;81.90;;;;;;5011514;28;20051;-43
2022/06/16 05:40:45;;;;;;;5.00;1.85;;;14.90;80.50;;;;;;5029499;28;20034;-47
2022/06/16 05:43:11;;;;;;;7.28;2.25;;;15.10;80.50;;;;;;5032015;28;20113;-43
2022/06/16 05:45:40;;;;;;;8.80;2.22;;;15.20;79.80;;;;;;5028684;28;20112;-44
2022/06/16 05:48:07;;;;;;;4.25;2.42;;;15.40;79.60;;;;;;5041019;28;20040;-44
2022/06/16 05:50:34;;;;;;;4.43;1.60;;;15.70;78.40;;;;;;5047666;28;20397;-44
2022/06/16 05:53:01;;;;;;;4.43;1.73;;;16.10;77.30;;;;;;5029083;28;20025;-44
2022/06/16 05:55:28;;;;;;;7.38;1.63;;;16.50;76.00;;;;;;5012181;28;20026;-44
2022/06/16 05:57:55;;;;;;;10.38;1.50;;;16.90;75.00;;;;;;5025869;28;20055;-45
2022/06/16 06:00:25;;;;;;;4.20;1.35;;;17.40;73.00;;;;;;5030744;28;20037;-44
2022/06/16 06:02:54;;;;;;;1.98;0.88;;;17.70;71.80;;;;;;5016353;28;20041;-45
2022/06/16 06:05:20;;;;;;;5.97;1.60;;;17.90;71.00;;;;;;5042553;28;20064;-45
2022/06/16 06:18:50;;;;;;;5.18;1.58;;;18.60;65.70;;;;;;5031878;28;20383;-45
2022/06/16 06:21:57;;;;;;;6.82;1.65;;;18.90;64.80;;;;;;5048069;28;20439;-45
2022/06/16 06:24:04;;;;;;;3.83;0.88;;;18.90;63.00;;;;;;5019366;28;20087;-45
2022/06/16 06:26:31;;;;;;;2.78;0.90;;;19.10;61.30;;;;;;5027195;28;20040;-45
2022/06/16 06:28:58;;;;;;;4.43;1.40;;;18.90;61.10;;;;;;5028912;28;20038;-47
2022/06/16 06:31:23;;;;;;;4.20;1.02;;;18.50;63.60;;;;;;5026249;28;20038;-46
2022/06/16 06:33:50;;;;;;;4.57;1.20;;;18.20;64.10;;;;;;5026773;28;20037;-45
2022/06/16 06:36:17;;;;;;;3.85;1.30;;;17.80;62.00;;;;;;5031236;28;20013;-44
2022/06/16 06:38:44;;;;;;;4.35;1.10;;;17.90;64.80;;;;;;5030976;28;20139;-45
2022/06/16 06:41:11;;;;;;;4.15;0.95;;;18.00;65.80;;;;;;5014727;28;20025;-48
2022/06/16 06:43:38;;;;;;;3.20;1.00;;;18.30;63.90;;;;;;5032551;28;20075;-47
2022/06/16 06:46:05;;;;;;;4.57;1.38;;;18.60;60.60;;;;;;5030768;28;20029;-45
2022/06/16 06:48:32;;;;;;;2.53;1.08;;;19.10;62.50;;;;;;5030116;28;20033;-45
2022/06/16 06:50:58;;;;;;;5.28;1.70;;;19.40;60.90;;;;;;5013783;28;20029;-45
2022/06/16 06:53:25;;;;;;;3.15;1.30;;;19.50;58.70;;;;;;5030782;28;20044;-45
2022/06/16 06:55:51;;;;;;;2.47;0.80;;;19.50;58.80;;;;;;5030665;28;20034;-45
2022/06/16 06:58:22;;;;;;;3.72;0.90;;;19.40;59.60;;;;;;5013682;28;20048;-45
2022/06/16 07:00:53;;;;;;;3.83;1.10;;;19.30;61.00;;;;;;5015139;28;20032;-48
2022/06/16 07:03:23;;;;;;;4.65;1.30;;;18.90;59.60;;;;;;5032280;28;20025;-45
2022/06/16 07:05:48;;;;;;;3.75;1.08;;;18.60;61.70;;;;;;5015762;28;20118;-46
2022/06/16 07:08:15;;;;;;;3.55;1.08;;;18.40;59.20;;;;;;5031392;28;20096;-44
2022/06/16 07:10:45;;;;;;;2.90;0.93;;;18.40;60.00;;;;;;5031082;28;20028;-47
2022/06/16 07:13:11;;;;;;;3.75;1.38;;;18.40;60.90;;;;;;5033081;28;20388;-46
2022/06/16 07:15:39;;;;;;;2.80;0.70;;;18.30;62.90;;;;;;5013936;28;20080;-45
2022/06/16 07:18:06;;;;;;;2.75;0.90;;;18.30;63.60;;;;;;5028452;28;20039;-44
2022/06/16 07:20:33;;;;;;;4.43;1.30;;;18.20;60.60;;;;;;5032031;28;20037;-44
2022/06/16 07:23:01;;;;;;;5.18;1.30;;;18.20;60.80;;;;;;5045059;28;20059;-45
2022/06/16 07:25:27;;;;;;;3.05;0.82;;;18.30;62.00;;;;;;5037026;28;20033;-48
2022/06/16 07:27:54;;;;;;;2.05;0.75;;;18.20;61.50;;;;;;5014087;28;20026;-44
2022/06/16 07:30:21;;;;;;;4.72;0.88;;;18.10;63.40;;;;;;5034445;28;20033;-46
2022/06/16 07:32:55;;;;;;;7.68;1.25;;;18.10;62.70;;;;;;5027997;28;20026;-44
2022/06/16 07:35:25;;;;;;;6.97;1.40;;;18.60;62.90;;;;;;5030841;28;20045;-45
2022/06/16 07:37:51;;;;;;;4.88;0.93;;;19.40;59.80;;;;;;5031184;28;20049;-47
2022/06/16 07:40:22;;;;;;;4.28;1.08;;;20.20;58.70;;;;;;5030688;28;20029;-45
2022/06/16 07:42:49;;;;;;;4.30;1.15;;;20.80;56.90;;;;;;5026329;28;20105;-45
2022/06/16 07:45:18;;;;;;;3.28;0.82;;;21.50;53.20;;;;;;5030817;28;20342;-45
2022/06/16 07:47:45;;;;;;;2.95;0.95;;;21.80;53.50;;;;;;5030591;28;20365;-45
2022/06/16 07:50:12;;;;;;;4.07;0.98;;;22.40;49.80;;;;;;5013261;28;20033;-45
2022/06/16 07:52:39;;;;;;;2.97;0.88;;;22.60;49.20;;;;;;5013163;28;20355;-47
2022/06/16 07:55:07;;;;;;;5.68;1.13;;;22.90;49.40;;;;;;5030298;28;20041;-45
2022/06/16 07:57:41;;;;;;;2.55;0.93;;;22.90;48.10;;;;;;5029712;28;20421;-48
2022/06/16 08:00:11;;;;;;;3.72;1.02;;;22.90;48.40;;;;;;5012256;28;20402;-48
2022/06/16 08:02:38;;;;;;;3.90;0.82;;;23.10;48.10;;;;;;5012987;28;20719;-46
2022/06/16 08:05:05;;;;;;;4.70;1.15;;;23.40;48.40;;;;;;5030802;28;20492;-45
2022/06/16 08:07:32;;;;;;;3.45;1.23;;;23.70;47.80;;;;;;5032862;28;20029;-45
2022/06/16 08:10:05;;;;;;;4.38;1.00;;;24.00;46.10;;;;;;5048461;28;20024;-46
2022/06/16 08:12:34;;;;;;;2.58;0.55;;;24.10;44.80;;;;;;5046302;28;20021;-45
2022/06/16 08:15:01;;;;;;;5.97;1.42;;;24.40;43.70;;;;;;5030811;28;20044;-46
2022/06/16 08:17:32;;;;;;;3.92;1.10;;;24.40;43.10;;;;;;5030033;28;20030;-47
2022/06/16 08:20:00;;;;;;;3.88;0.95;;;24.30;43.10;;;;;;5030001;28;20053;-45
2022/06/16 08:22:28;;;;;;;2.70;0.95;;;24.20;44.00;;;;;;5029437;28;20533;-46
2022/06/16 08:24:59;;;;;;;2.13;0.95;;;24.40;44.30;;;;;;5029190;28;20029;-45
2022/06/16 08:27:29;;;;;;;4.93;0.82;;;24.50;44.20;;;;;;5043749;28;20396;-45
2022/06/16 08:29:56;;;;;;;2.33;0.98;;;24.40;41.80;;;;;;5029175;28;20037;-47
2022/06/16 08:32:23;;;;;;;1.80;0.65;;;24.50;41.90;;;;;;5029289;28;20032;-46
2022/06/16 08:34:49;;;;;;;5.28;0.90;;;24.40;41.90;;;;;;5029656;28;20021;-46
2022/06/16 08:37:16;;;;;;;4.20;1.33;;;24.40;42.70;;;;;;5050052;28;20040;-45
2022/06/16 08:39:43;;;;;;;2.80;0.75;;;24.00;44.10;;;;;;5045834;28;20042;-47
2022/06/16 08:42:27;;;;;;;2.53;0.90;;;24.10;43.90;;;;;;5029999;28;20108;-46
2022/06/16 08:45:14;;;;;;;5.15;1.30;;;24.40;41.80;;;;;;5011519;28;20025;-46
2022/06/16 08:47:59;;;;;;;3.50;1.27;;;24.50;41.10;;;;;;5045622;28;20430;-48
2022/06/16 08:50:46;;;;;;;1.95;0.68;;;24.10;44.30;;;;;;5029831;28;20037;-45
2022/06/16 08:53:54;;;;;;;4.60;1.63;;;24.40;44.00;;;;;;5030220;28;20025;-45
2022/06/16 08:56:38;;;;;;;5.75;1.00;;;24.60;43.50;;;;;;5010615;28;20038;-46
2022/06/16 08:59:37;;;;;;;3.45;1.23;;;24.20;46.70;;;;;;5012412;28;20034;-48
2022/06/16 09:02:47;;;;;;;2.53;0.60;;;24.40;44.40;;;;;;5010186;28;20030;-46
2022/06/16 09:05:25;;;;;;;5.55;0.98;;;24.60;43.50;;;;;;5047069;28;20128;-47
2022/06/16 09:08:20;;;;;;;2.92;0.60;;;24.80;41.60;;;;;;5016638;28;20393;-46
2022/06/16 09:11:10;;;;;;;3.65;0.80;;;24.90;41.90;;;;;;5032997;28;20128;-45
2022/06/16 09:13:48;;;;;;;3.00;0.60;;;25.00;41.90;;;;;;5029689;28;20025;-45
2022/06/16 09:16:45;;;;;;;4.13;0.77;;;25.10;41.90;;;;;;5019335;28;20176;-45
2022/06/16 09:19:44;;;;;;;2.55;0.82;;;25.10;44.00;;;;;;5046387;28;20040;-46
2022/06/16 09:22:44;;;;;;;5.07;1.40;;;24.90;42.10;;;;;;5049709;28;20397;-49
2022/06/16 09:25:28;;;;;;;4.40;0.95;;;24.30;45.50;;;;;;5029026;28;20497;-46
2022/06/16 09:28:06;;;;;;;5.78;1.25;;;24.10;45.90;;;;;;5029056;28;20037;-45
2022/06/16 09:30:38;;;;;;;5.82;0.93;;;24.00;47.00;;;;;;5049279;28;20048;-46
2022/06/16 09:33:15;;;;;;;3.33;0.80;;;24.20;44.80;;;;;;5047972;28;20529;-47
2022/06/16 09:35:49;;;;;;;6.25;1.23;;;24.40;45.50;;;;;;5042927;28;20374;-46
2022/06/16 09:38:37;;;;;;;2.80;0.80;;;24.40;44.80;;;;;;5028621;28;20489;-45
2022/06/16 09:44:04;;;;;;;5.22;1.25;;;24.60;46.20;;;;;;5009506;28;20091;-49
2022/06/16 09:46:37;;;;;;;6.15;1.80;;;24.30;49.10;;;;;;4995768;28;20151;-46
2022/06/16 09:49:37;;;;;;;3.08;1.13;;;24.10;49.10;;;;;;5032862;28;20116;-46
2022/06/16 09:52:07;;;;;;;;;;;24.00;47.60;;;;;;5030649;28;20067;-46
2022/06/16 09:54:55;;;;;;;2.88;0.85;;;24.30;48.40;;;;;;5039612;28;20376;-46
2022/06/16 09:58:02;;;;;;;3.65;1.10;;;24.40;44.10;;;;;;5029052;28;20068;-47
2022/06/16 10:00:36;;;;;;;3.92;1.13;;;24.50;46.20;;;;;;5022539;28;20035;-46
2022/06/16 10:03:20;;;;;;;6.90;1.50;;;24.80;45.70;;;;;;5031130;28;20024;-46
2022/06/16 10:06:10;;;;;;;3.67;0.85;;;24.70;45.50;;;;;;5029326;28;20045;-47
2022/06/16 10:09:03;;;;;;;4.18;1.38;;;24.80;45.20;;;;;;5029767;28;20041;-46
2022/06/16 10:12:07;;;;;;;2.35;0.70;;;24.40;45.70;;;;;;5037235;28;20046;-46
2022/06/16 10:14:54;;;;;;;3.72;1.13;;;24.30;46.10;;;;;;5022938;28;20443;-51
2022/06/16 10:17:24;;;;;;;3.33;1.02;;;23.90;47.80;;;;;;5015062;28;20053;-46
2022/06/16 10:19:52;;;;;;;1.90;1.02;;;23.90;46.80;;;;;;5048483;28;20025;-47
2022/06/16 10:22:21;;;;;;;9.38;1.48;;;24.10;50.20;;;;;;5011540;28;20490;-48
2022/06/16 10:25:15;;;;;;;2.38;0.80;;;24.10;47.80;;;;;;5013088;28;20022;-47
2022/06/16 10:28:10;;;;;;;3.58;1.05;;;24.20;45.20;;;;;;5008307;28;20033;-48
2022/06/16 10:30:38;;;;;;;2.17;0.75;;;24.10;47.90;;;;;;5051366;28;20029;-48
2022/06/16 10:33:19;;;;;;;4.05;1.13;;;24.10;47.80;;;;;;5042382;28;20026;-46
2022/06/16 10:35:59;;;;;;;3.03;0.90;;;23.80;44.40;;;;;;5048469;28;20037;-46
2022/06/16 10:39:03;;;;;;;3.50;1.40;;;24.10;43.00;;;;;;5032028;28;20057;-47
2022/06/16 10:41:34;;;;;;;3.45;0.90;;;24.10;42.30;;;;;;5034720;28;20139;-47
2022/06/16 10:44:03;;;;;;;1.83;0.93;;;24.20;40.50;;;;;;5004146;28;20096;-48
2022/06/16 10:46:35;;;;;;;2.55;0.77;;;24.00;40.90;;;;;;5032541;28;20033;-49
2022/06/16 10:49:08;;;;;;;2.83;0.73;;;23.90;41.00;;;;;;5031967;28;20438;-46
2022/06/16 10:51:57;;;;;;;3.63;0.80;;;23.70;43.40;;;;;;5021739;28;20041;-46
2022/06/16 10:54:36;;;;;;;4.00;0.93;;;23.50;42.50;;;;;;5031943;28;20026;-46
2022/06/16 10:57:26;;;;;;;3.50;0.87;;;23.60;44.30;;;;;;5014779;28;20073;-48
2022/06/16 11:00:19;;;;;;;4.15;1.17;;;23.80;41.70;;;;;;5021245;28;20330;-46
2022/06/16 11:02:58;;;;;;;1.77;0.55;;;23.90;44.00;;;;;;5052326;28;20033;-46
2022/06/16 11:05:25;;;;;;;3.30;0.90;;;24.00;42.40;;;;;;5018899;28;20160;-46
2022/06/16 11:07:52;;;;;;;3.17;0.82;;;23.90;43.10;;;;;;5032110;28;20395;-46
2022/06/16 11:10:36;;;;;;;3.40;0.90;;;24.00;43.60;;;;;;5030582;28;20090;-46
2022/06/16 11:13:06;;;;;;;2.95;0.70;;;23.50;46.30;;;;;;5043923;28;20087;-46
2022/06/16 11:15:51;;;;;;;4.00;1.08;;;23.80;44.40;;;;;;5032157;28;20105;-45
2022/06/16 11:18:23;;;;;;;2.80;0.73;;;23.90;45.90;;;;;;5031398;28;20044;-47
2022/06/16 11:20:53;;;;;;;4.43;0.90;;;24.00;46.40;;;;;;5030683;28;20480;-46
2022/06/16 11:23:22;;;;;;;3.38;1.02;;;24.10;42.60;;;;;;5014332;28;20029;-47
2022/06/16 11:25:58;;;;;;;4.47;1.08;;;24.10;43.60;;;;;;5014070;28;20112;-46
2022/06/16 11:28:26;;;;;;;3.15;0.90;;;23.70;44.20;;;;;;5050208;28;20025;-47
2022/06/16 11:31:14;;;;;;;3.13;0.63;;;23.60;43.60;;;;;;5049467;28;20032;-46
2022/06/16 11:36:38;;;;;;;2.63;0.70;;;23.60;41.80;;;;;;5051289;28;20059;-47
2022/06/16 11:39:14;;;;;;;3.80;0.85;;;23.60;43.80;;;;;;5049836;28;20525;-46
2022/06/16 11:41:46;;;;;;;2.58;0.80;;;23.50;43.60;;;;;;5050637;28;20029;-47
2022/06/16 11:44:29;;;;;;;2.05;0.85;;;23.70;43.90;;;;;;5042513;28;20029;-46
2022/06/16 11:47:11;;;;;;;2.47;0.85;;;23.60;44.70;;;;;;5034998;28;20095;-47
2022/06/16 11:49:42;;;;;;;2.85;0.70;;;23.60;42.70;;;;;;5031198;28;20025;-46
2022/06/16 11:52:51;;;;;;;2.97;0.90;;;23.40;43.30;;;;;;5040735;28;20032;-45
2022/06/16 11:55:46;;;;;;;1.60;0.80;;;23.20;43.20;;;;;;5035158;28;20026;-45
2022/06/16 11:58:20;;;;;;;4.10;1.35;;;23.20;45.40;;;;;;5013432;28;20177;-46
2022/06/16 12:01:06;;;;;;;2.70;0.73;;;22.90;44.20;;;;;;5033032;28;20472;-45
2022/06/16 12:04:09;;;;;;;3.42;0.98;;;22.70;45.70;;;;;;5029829;28;20421;-47
2022/06/16 12:07:14;;;;;;;4.18;1.27;;;22.60;44.00;;;;;;5030969;28;20841;-46
2022/06/16 12:10:02;;;;;;;4.13;0.90;;;22.60;44.90;;;;;;5028645;28;20044;-45
2022/06/16 12:12:48;;;;;;;2.92;0.93;;;22.40;45.80;;;;;;5029468;28;20026;-46
2022/06/16 12:15:32;;;;;;;3.95;0.95;;;22.30;44.50;;;;;;5028951;28;20054;-46
2022/06/16 12:18:16;;;;;;;4.72;1.40;;;22.10;46.90;;;;;;5031048;28;20040;-45
2022/06/16 12:21:20;;;;;;;2.50;0.82;;;22.00;44.90;;;;;;5031600;28;20082;-46
2022/06/16 12:24:14;;;;;;;3.70;1.00;;;21.90;48.20;;;;;;5028511;28;20041;-46
2022/06/16 12:27:03;;;;;;;3.10;0.90;;;22.10;47.80;;;;;;5025610;28;20096;-45
2022/06/16 12:29:51;;;;;;;3.28;1.42;;;22.10;48.00;;;;;;5028915;28;20438;-45
2022/06/16 12:32:38;;;;;;;2.40;0.88;;;22.10;46.10;;;;;;5044792;28;20101;-46
2022/06/16 12:35:31;;;;;;;3.78;1.05;;;22.10;47.20;;;;;;5010796;28;20037;-46
2022/06/16 12:38:16;;;;;;;4.57;1.42;;;21.90;47.30;;;;;;5015543;28;20051;-45
2022/06/16 12:41:02;;;;;;;3.78;1.00;;;22.00;46.70;;;;;;5045460;28;20042;-48
2022/06/16 12:43:36;;;;;;;1.80;0.77;;;22.30;49.00;;;;;;5035488;28;20596;-46
2022/06/16 12:46:13;;;;;;;5.25;1.02;;;22.30;49.40;;;;;;5031340;28;20033;-48
2022/06/16 12:48:50;;;;;;;2.88;1.17;;;22.10;47.40;;;;;;5017281;28;20033;-45
2022/06/16 12:51:20;;;;;;;3.63;0.80;;;22.00;45.50;;;;;;5047994;28;20037;-46
2022/06/16 12:54:12;;;;;;;4.15;0.90;;;22.00;47.00;;;;;;4939815;27;5940628;-45
2022/06/16 12:56:58;;;;;;;2.80;1.10;;;22.00;50.20;;;;;;5120763;28;20023;-45
2022/06/16 12:59:32;;;;;;;2.50;0.93;;;22.10;49.40;;;;;;5129206;27;20095;-44
2022/06/16 13:02:02;;;;;;;7.72;1.55;;;22.10;48.70;;;;;;5096019;27;20035;-46
2022/06/16 13:04:32;;;;;;;3.70;1.02;;;21.90;48.30;;;;;;5099167;28;20112;-46
2022/06/16 13:07:03;;;;;;;5.50;1.80;;;22.00;49.10;;;;;;5111333;28;20027;-45
2022/06/16 13:09:32;;;;;;;4.10;0.95;;;21.90;49.80;;;;;;5104539;28;20480;-46
2022/06/16 13:12:14;;;;;;;3.67;0.90;;;21.70;51.20;;;;;;5087783;28;20368;-45
2022/06/16 13:14:58;;;;;;;7.28;1.98;;;21.70;53.10;;;;;;5090437;28;20032;-45
2022/06/16 13:17:36;;;;;;;3.65;1.50;;;21.70;50.90;;;;;;5126816;28;20024;-45
2022/06/16 13:20:13;;;;;;;4.03;1.20;;;21.80;52.10;;;;;;5107522;27;20019;-45
2022/06/16 13:22:42;;;;;;;5.25;1.58;;;21.60;52.30;;;;;;5095768;28;20031;-47
2022/06/16 13:25:37;;;;;;;2.53;1.10;;;21.70;53.30;;;;;;5117071;27;20167;-46
2022/06/16 13:28:10;;;;;;;3.72;1.40;;;21.70;53.80;;;;;;5104858;28;20043;-45
2022/06/16 13:31:10;;;;;;;3.10;1.15;;;21.70;52.10;;;;;;5075547;28;20031;-44
2022/06/16 13:34:09;;;;;;;2.22;1.13;;;21.80;52.30;;;;;;5106205;28;20031;-45
2022/06/16 13:36:54;;;;;;;;;;;21.80;54.20;;;;;;5106962;28;20392;-46
2022/06/16 13:39:59;;;;;;;4.10;1.58;;;21.70;53.60;;;;;;5106081;28;19918;-49
2022/06/16 13:43:07;;;;;;;4.22;1.13;;;21.80;51.00;;;;;;5105809;28;20028;-45
2022/06/16 13:45:54;;;;;;;2.72;1.02;;;21.80;51.00;;;;;;5105334;28;20036;-45
2022/06/16 13:48:49;;;;;;;3.45;1.50;;;21.80;54.10;;;;;;5123525;28;20028;-47
2022/06/16 13:51:43;;;;;;;2.47;0.98;;;21.90;54.00;;;;;;5120773;28;20348;-45
2022/06/16 13:54:15;;;;;;;6.20;1.38;;;21.90;51.30;;;;;;5064951;28;20459;-46